createdAt,value
2018-10-18T00:00:35.315Z,13.47
2018-10-18T00:03:04.189Z,13.52
2018-10-18T00:05:33.550Z,13.56
2018-10-18T00:08:03.008Z,13.61
2018-10-18T00:10:31.860Z,13.69
2018-10-18T00:13:00.732Z,13.77
2018-10-18T00:15:29.994Z,13.82
2018-10-18T00:17:59.159Z,13.89
2018-10-18T00:20:27.998Z,13.94
2018-10-18T00:22:56.811Z,14.00
2018-10-18T00:25:26.548Z,14.06
2018-10-18T00:27:55.301Z,14.09
2018-10-18T00:30:24.358Z,14.13
2018-10-18T00:32:53.198Z,14.13
2018-10-18T00:35:22.066Z,14.16
2018-10-18T00:37:51.277Z,14.15
2018-10-18T00:40:20.420Z,14.20
2018-10-18T00:42:49.492Z,14.22
2018-10-18T00:45:18.662Z,14.25
2018-10-18T00:47:47.878Z,14.25
2018-10-18T00:50:16.814Z,14.25
2018-10-18T00:52:45.640Z,14.29
2018-10-18T00:55:14.604Z,14.33
2018-10-18T00:57:43.634Z,14.35
2018-10-18T01:00:13.074Z,14.32
2018-10-18T01:02:41.987Z,14.35
2018-10-18T01:05:11.419Z,14.35
2018-10-18T01:07:40.980Z,14.36
2018-10-18T01:10:09.819Z,14.34
2018-10-18T01:12:38.642Z,14.36
2018-10-18T01:15:09.801Z,14.35
2018-10-18T01:17:38.584Z,14.36
2018-10-18T01:20:08.065Z,14.35
2018-10-18T01:22:36.778Z,14.36
2018-10-18T01:25:06.196Z,14.36
2018-10-18T01:27:35.653Z,14.33
2018-10-18T01:30:04.932Z,14.33
2018-10-18T01:32:34.542Z,14.31
2018-10-18T01:35:03.415Z,14.26
2018-10-18T01:37:35.320Z,14.24
2018-10-18T01:40:04.814Z,14.25
2018-10-18T01:42:33.915Z,14.21
2018-10-18T01:45:03.241Z,14.17
2018-10-18T01:47:32.359Z,14.16
2018-10-18T01:50:01.427Z,14.15
2018-10-18T01:52:30.208Z,14.16
2018-10-18T01:54:58.997Z,14.15
2018-10-18T01:57:28.840Z,14.18
2018-10-18T01:59:57.542Z,14.17
2018-10-18T02:02:26.634Z,14.19
2018-10-18T02:04:55.240Z,14.15
2018-10-18T02:07:24.081Z,14.09
2018-10-18T02:09:52.817Z,14.07
2018-10-18T02:12:21.724Z,13.98
2018-10-18T02:14:50.732Z,13.87
2018-10-18T02:20:00.487Z,13.87
2018-10-18T02:22:29.199Z,13.87
2018-10-18T02:24:57.965Z,13.91
2018-10-18T02:27:26.942Z,13.85
2018-10-18T02:29:55.678Z,13.81
2018-10-18T02:32:24.715Z,13.81
2018-10-18T02:34:53.691Z,13.76
2018-10-18T02:37:22.406Z,13.65
2018-10-18T02:39:51.128Z,13.62
2018-10-18T02:42:20.090Z,13.62
2018-10-18T02:44:48.999Z,13.58
2018-10-18T02:47:18.085Z,13.54
2018-10-18T02:49:47.203Z,13.51
2018-10-18T02:52:16.120Z,13.52
2018-10-18T02:54:45.292Z,13.50
2018-10-18T02:57:13.950Z,13.54
2018-10-18T02:59:42.538Z,13.49
2018-10-18T03:02:11.248Z,13.36
2018-10-18T03:04:41.030Z,13.27
2018-10-18T03:07:10.061Z,13.20
2018-10-18T03:09:39.178Z,13.18
2018-10-18T03:12:07.978Z,13.13
2018-10-18T03:14:37.803Z,13.09
2018-10-18T03:17:07.513Z,13.18
2018-10-18T03:19:37.143Z,13.30
2018-10-18T03:22:07.716Z,13.42
2018-10-18T03:24:36.532Z,13.57
2018-10-18T03:27:05.480Z,13.64
2018-10-18T03:29:34.317Z,13.71
2018-10-18T03:32:03.426Z,13.75
2018-10-18T03:34:32.063Z,13.85
2018-10-18T03:37:00.819Z,13.90
2018-10-18T03:39:30.020Z,13.92
2018-10-18T03:41:59.120Z,14.01
2018-10-18T03:44:27.826Z,14.03
2018-10-18T03:46:56.479Z,14.06
2018-10-18T03:49:25.247Z,14.07
2018-10-18T03:51:53.960Z,14.13
2018-10-18T03:54:22.817Z,14.15
2018-10-18T03:56:52.452Z,14.21
2018-10-18T03:59:21.337Z,14.18
2018-10-18T04:01:50.280Z,14.23
2018-10-18T04:04:19.146Z,14.26
2018-10-18T04:06:47.725Z,14.26
2018-10-18T04:09:16.893Z,14.26
2018-10-18T04:11:45.593Z,14.27
2018-10-18T04:14:14.373Z,14.32
2018-10-18T04:16:43.123Z,14.28
2018-10-18T04:19:12.049Z,14.30
2018-10-18T04:21:40.912Z,14.32
2018-10-18T04:24:10.087Z,14.28
2018-10-18T04:26:39.476Z,14.28
2018-10-18T04:29:08.134Z,14.24
2018-10-18T04:31:36.926Z,14.26
2018-10-18T04:34:05.951Z,14.31
2018-10-18T04:36:35.676Z,14.31
2018-10-18T04:39:08.707Z,14.30
2018-10-18T04:41:37.428Z,14.26
2018-10-18T04:44:07.331Z,14.28
2018-10-18T04:46:36.093Z,14.27
2018-10-18T04:49:04.894Z,14.27
2018-10-18T04:51:33.672Z,14.29
2018-10-18T04:54:02.356Z,14.28
2018-10-18T04:56:31.557Z,14.18
2018-10-18T04:59:00.584Z,14.13
2018-10-18T05:01:29.329Z,13.97
2018-10-18T05:03:58.010Z,13.75
2018-10-18T05:06:26.680Z,13.51
2018-10-18T05:08:55.980Z,13.32
2018-10-18T05:11:25.056Z,13.11
2018-10-18T05:13:53.779Z,13.00
2018-10-18T05:16:22.504Z,12.86
2018-10-18T05:18:51.697Z,12.70
2018-10-18T05:21:20.453Z,12.61
2018-10-18T05:23:49.238Z,12.53
2018-10-18T05:26:17.996Z,12.34
2018-10-18T05:28:46.770Z,12.24
2018-10-18T05:31:15.945Z,12.10
2018-10-18T05:33:45.066Z,12.05
2018-10-18T05:36:14.040Z,12.02
2018-10-18T05:38:43.084Z,11.99
2018-10-18T05:41:11.938Z,12.00
2018-10-18T05:43:40.893Z,11.97
2018-10-18T05:46:10.348Z,11.95
2018-10-18T05:48:40.013Z,11.92
2018-10-18T05:51:09.062Z,11.94
2018-10-18T05:53:37.917Z,12.06
2018-10-18T05:56:06.680Z,12.07
2018-10-18T05:58:37.251Z,12.00
2018-10-18T06:01:06.617Z,11.90
2018-10-18T06:03:35.406Z,11.89
2018-10-18T06:06:05.220Z,11.95
2018-10-18T06:08:35.158Z,12.02
2018-10-18T06:11:22.743Z,12.14
2018-10-18T06:13:51.625Z,12.17
2018-10-18T06:16:21.573Z,12.17
2018-10-18T06:18:51.408Z,12.17
2018-10-18T06:21:20.207Z,12.18
2018-10-18T06:23:48.976Z,12.18
2018-10-18T06:26:18.175Z,12.23
2018-10-18T06:28:47.029Z,12.28
2018-10-18T06:31:16.187Z,12.30
2018-10-18T06:33:44.933Z,12.33
2018-10-18T06:36:14.728Z,12.34
2018-10-18T06:38:43.633Z,12.34
2018-10-18T06:41:12.446Z,12.37
2018-10-18T06:43:42.142Z,12.35
2018-10-18T06:46:13.494Z,12.32
2018-10-18T06:48:42.816Z,12.39
2018-10-18T06:51:12.219Z,12.40
2018-10-18T06:53:42.811Z,12.50
2018-10-18T06:56:11.700Z,12.60
2018-10-18T06:58:40.852Z,12.75
2018-10-18T07:01:09.613Z,12.85
2018-10-18T07:03:38.368Z,12.91
2018-10-18T07:06:07.419Z,13.01
2018-10-18T07:08:36.142Z,13.10
2018-10-18T07:11:05.004Z,13.20
2018-10-18T07:13:33.747Z,13.25
2018-10-18T07:16:06.885Z,13.28
2018-10-18T07:18:41.927Z,13.25
2018-10-18T07:21:11.065Z,13.31
2018-10-18T07:23:40.122Z,13.22
2018-10-18T07:26:09.441Z,13.14
2018-10-18T07:28:40.248Z,13.06
2018-10-18T07:31:09.074Z,13.00
2018-10-18T07:33:39.078Z,12.94
2018-10-18T07:36:09.313Z,12.93
2018-10-18T07:38:38.927Z,13.00
2018-10-18T07:41:13.054Z,13.09
2018-10-18T07:43:43.288Z,13.17
2018-10-18T07:46:13.118Z,13.16
2018-10-18T07:48:42.178Z,13.16
2018-10-18T07:51:11.331Z,13.13
2018-10-18T07:53:40.393Z,13.13
2018-10-18T07:56:09.950Z,13.18
2018-10-18T07:58:39.397Z,13.20
2018-10-18T08:01:24.743Z,13.24
2018-10-18T08:03:54.062Z,13.29
2018-10-18T08:06:24.376Z,13.32
2018-10-18T08:08:53.584Z,13.31
2018-10-18T08:11:22.721Z,13.31
2018-10-18T08:13:51.765Z,13.40
2018-10-18T08:16:21.908Z,13.52
2018-10-18T08:18:50.913Z,13.63
2018-10-18T08:21:20.921Z,13.65
2018-10-18T08:23:49.910Z,13.70
2018-10-18T08:26:19.039Z,13.76
2018-10-18T08:28:47.759Z,13.83
2018-10-18T08:31:24.256Z,13.89
2018-10-18T08:33:53.037Z,13.94
2018-10-18T08:36:21.939Z,13.94
2018-10-18T08:38:50.723Z,13.95
2018-10-18T08:41:20.759Z,14.02
2018-10-18T08:43:49.811Z,14.06
2018-10-18T08:46:18.736Z,14.14
2018-10-18T08:48:48.343Z,14.27
2018-10-18T08:51:20.005Z,14.44
2018-10-18T08:53:49.115Z,14.71
2018-10-18T08:56:19.343Z,15.00
2018-10-18T08:58:48.658Z,15.21
2018-10-18T09:01:18.912Z,15.12
2018-10-18T09:03:47.900Z,15.19
2018-10-18T09:06:17.303Z,15.47
2018-10-18T09:08:46.373Z,15.72
2018-10-18T09:11:15.878Z,16.23
2018-10-18T09:13:44.752Z,16.74
2018-10-18T09:16:13.818Z,16.95
2018-10-18T09:18:43.000Z,16.88
2018-10-18T09:21:12.968Z,16.78
2018-10-18T09:23:41.944Z,16.91
2018-10-18T09:26:17.171Z,17.17
2018-10-18T09:28:46.039Z,17.44
2018-10-18T09:31:15.247Z,17.57
2018-10-18T09:33:45.157Z,17.46
2018-10-18T09:36:14.481Z,17.50
2018-10-18T09:38:43.474Z,17.69
2018-10-18T09:41:12.336Z,17.61
2018-10-18T09:43:42.094Z,17.61
2018-10-18T09:46:12.844Z,17.62
2018-10-18T09:48:42.844Z,17.52
2018-10-18T09:51:13.436Z,17.66
2018-10-18T09:53:42.861Z,17.82
2018-10-18T09:56:12.252Z,17.86
2018-10-18T09:58:41.055Z,17.80
2018-10-18T10:01:16.094Z,17.74
2018-10-18T10:03:45.599Z,17.54
2018-10-18T10:06:14.583Z,17.40
2018-10-18T10:08:47.740Z,17.36
2018-10-18T10:11:18.725Z,17.12
2018-10-18T10:13:52.915Z,16.83
2018-10-18T10:16:22.080Z,16.64
2018-10-18T10:18:51.752Z,16.19
2018-10-18T10:21:21.951Z,15.88
2018-10-18T10:23:51.672Z,15.72
2018-10-18T10:26:20.869Z,15.66
2018-10-18T10:28:49.725Z,15.47
2018-10-18T10:31:19.558Z,15.32
2018-10-18T10:33:48.324Z,15.22
2018-10-18T10:36:19.928Z,15.23
2018-10-18T10:38:50.031Z,15.07
2018-10-18T10:41:20.958Z,15.05
2018-10-18T10:43:49.751Z,15.13
2018-10-18T10:46:18.711Z,15.22
2018-10-18T10:48:48.223Z,15.38
2018-10-18T10:51:18.161Z,15.63
2018-10-18T10:53:48.161Z,15.98
2018-10-18T10:56:17.347Z,16.00
2018-10-18T10:58:46.815Z,15.92
2018-10-18T11:01:19.101Z,15.67
2018-10-18T11:03:50.215Z,15.52
2018-10-18T11:06:19.654Z,15.57
2018-10-18T11:08:48.581Z,15.80
2018-10-18T11:11:21.534Z,16.03
2018-10-18T11:13:50.576Z,16.52
2018-10-18T11:16:20.350Z,17.24
2018-10-18T11:18:49.165Z,17.76
2018-10-18T11:21:20.237Z,17.85
2018-10-18T11:23:49.286Z,17.66
2018-10-18T11:26:18.707Z,17.50
2018-10-18T11:28:50.935Z,17.35
2018-10-18T11:31:40.927Z,17.39
2018-10-18T11:34:11.568Z,17.51
2018-10-18T11:36:40.519Z,17.40
2018-10-18T11:39:13.074Z,17.30
2018-10-18T11:41:51.996Z,17.36
2018-10-18T11:44:25.724Z,17.36
2018-10-18T11:46:54.779Z,17.39
2018-10-18T11:49:25.298Z,17.33
2018-10-18T11:52:09.894Z,17.23
2018-10-18T11:54:41.406Z,17.02
2018-10-18T11:57:11.361Z,17.05
2018-10-18T11:59:40.465Z,17.35
2018-10-18T12:02:15.280Z,17.88
2018-10-18T12:04:53.222Z,18.37
2018-10-18T12:07:23.016Z,18.54
2018-10-18T12:09:55.334Z,18.51
2018-10-18T12:12:25.331Z,18.26
2018-10-18T12:14:54.195Z,18.10
2018-10-18T12:17:24.210Z,17.85
2018-10-18T12:19:53.087Z,17.66
2018-10-18T12:22:22.184Z,17.36
2018-10-18T12:24:52.900Z,16.81
2018-10-18T12:27:23.644Z,16.26
2018-10-18T12:29:53.622Z,15.93
2018-10-18T12:32:26.931Z,15.78
2018-10-18T12:34:57.331Z,15.60
2018-10-18T12:37:26.797Z,15.46
2018-10-18T12:39:57.347Z,15.29
2018-10-18T12:42:28.353Z,15.21
2018-10-18T12:44:58.834Z,15.10
2018-10-18T12:47:28.288Z,15.13
2018-10-18T12:49:59.050Z,15.10
2018-10-18T12:52:31.751Z,15.02
2018-10-18T12:55:00.564Z,15.06
2018-10-18T12:57:29.583Z,15.14
2018-10-18T12:59:58.747Z,15.24
2018-10-18T13:02:29.769Z,15.45
2018-10-18T13:04:59.435Z,15.55
2018-10-18T13:07:29.587Z,15.41
2018-10-18T13:09:59.793Z,15.25
2018-10-18T13:12:29.787Z,15.04
2018-10-18T13:14:59.296Z,14.85
2018-10-18T13:17:28.536Z,14.68
2018-10-18T13:19:59.183Z,14.60
2018-10-18T13:22:42.020Z,14.68
2018-10-18T13:25:12.583Z,14.74
2018-10-18T13:27:41.848Z,14.72
2018-10-18T13:30:12.506Z,14.77
2018-10-18T13:32:44.090Z,14.85
2018-10-18T13:35:14.464Z,14.79
2018-10-18T13:37:43.637Z,14.80
2018-10-18T13:40:12.581Z,14.76
2018-10-18T13:42:49.376Z,14.69
2018-10-18T13:45:18.947Z,14.62
2018-10-18T13:47:47.873Z,14.58
2018-10-18T13:50:17.085Z,14.54
2018-10-18T13:52:46.877Z,14.50
2018-10-18T13:55:15.723Z,14.44
2018-10-18T13:57:45.084Z,14.54
2018-10-18T14:00:20.731Z,14.73
2018-10-18T14:02:55.216Z,14.82
2018-10-18T14:05:26.079Z,14.88
2018-10-18T14:07:55.671Z,14.91
2018-10-18T14:10:24.516Z,14.91
2018-10-18T14:13:06.295Z,14.97
2018-10-18T14:15:35.192Z,14.99
2018-10-18T14:18:04.742Z,14.97
2018-10-18T14:20:33.551Z,15.02
2018-10-18T14:23:04.453Z,15.11
2018-10-18T14:25:34.035Z,15.09
2018-10-18T14:28:02.883Z,15.07
2018-10-18T14:30:31.792Z,14.97
2018-10-18T14:33:07.609Z,14.82
2018-10-18T14:35:37.383Z,14.75
2018-10-18T14:38:06.688Z,14.73
2018-10-18T14:40:35.460Z,14.69
2018-10-18T14:43:07.629Z,14.65
2018-10-18T14:45:36.640Z,14.56
2018-10-18T14:48:05.867Z,14.50
2018-10-18T14:50:35.091Z,14.47
2018-10-18T14:53:06.971Z,14.46
2018-10-18T14:55:36.040Z,14.43
2018-10-18T14:58:05.411Z,14.44
2018-10-18T15:00:34.098Z,14.47
2018-10-18T15:03:04.340Z,14.48
2018-10-18T15:05:33.419Z,14.47
2018-10-18T15:08:02.421Z,14.39
2018-10-18T15:10:31.838Z,14.32
2018-10-18T15:13:05.044Z,14.28
2018-10-18T15:15:33.798Z,14.17
2018-10-18T15:18:02.728Z,14.16
2018-10-18T15:20:31.880Z,14.18
2018-10-18T15:23:04.658Z,14.20
2018-10-18T15:25:34.133Z,14.23
2018-10-18T15:28:03.317Z,14.26
2018-10-18T15:30:32.510Z,14.29
2018-10-18T15:33:09.427Z,14.33
2018-10-18T15:35:38.192Z,14.34
2018-10-18T15:38:07.101Z,14.35
2018-10-18T15:40:35.946Z,14.34
2018-10-18T15:43:12.278Z,14.31
2018-10-18T15:45:41.100Z,14.27
2018-10-18T15:48:10.026Z,14.23
2018-10-18T15:50:39.051Z,14.20
2018-10-18T15:53:12.089Z,14.21
2018-10-18T15:55:41.364Z,14.13
2018-10-18T15:58:10.295Z,14.06
2018-10-18T16:00:39.065Z,14.01
2018-10-18T16:03:15.990Z,13.94
2018-10-18T16:05:44.718Z,13.88
2018-10-18T16:08:13.524Z,13.87
2018-10-18T16:10:42.372Z,13.81
2018-10-18T16:13:19.131Z,13.79
2018-10-18T16:15:48.285Z,13.76
2018-10-18T16:18:16.997Z,13.70
2018-10-18T16:20:46.100Z,13.68
2018-10-18T16:23:22.217Z,13.66
2018-10-18T16:25:51.068Z,13.63
2018-10-18T16:28:19.830Z,13.66
2018-10-18T16:30:48.862Z,13.62
2018-10-18T16:33:17.810Z,13.61
2018-10-18T16:35:46.485Z,13.60
2018-10-18T16:38:15.837Z,13.60
2018-10-18T16:40:44.956Z,13.57
2018-10-18T16:43:15.442Z,13.56
2018-10-18T16:45:45.217Z,13.53
2018-10-18T16:48:14.208Z,13.52
2018-10-18T16:50:43.099Z,13.51
2018-10-18T16:53:12.087Z,13.48
2018-10-18T16:55:40.980Z,13.46
2018-10-18T16:58:11.096Z,13.46
2018-10-18T17:00:40.104Z,13.45
2018-10-18T17:03:08.985Z,13.44
2018-10-18T17:05:38.109Z,13.44
2018-10-18T17:08:07.421Z,13.43
2018-10-18T17:10:36.224Z,13.41
2018-10-18T17:13:05.418Z,13.40
2018-10-18T17:15:39.356Z,13.36
2018-10-18T17:18:08.376Z,13.35
2018-10-18T17:20:38.023Z,13.35
2018-10-18T17:23:06.853Z,13.35
2018-10-18T17:25:38.242Z,13.35
2018-10-18T17:28:07.323Z,13.35
2018-10-18T17:30:36.597Z,13.32
2018-10-18T17:33:05.561Z,13.32
2018-10-18T17:36:12.429Z,13.28
2018-10-18T17:38:41.271Z,13.16
2018-10-18T17:41:11.568Z,13.11
2018-10-18T17:43:42.504Z,12.98
2018-10-18T17:46:11.594Z,12.92
2018-10-18T17:48:40.833Z,12.83
2018-10-18T17:51:09.888Z,12.78
2018-10-18T17:53:39.031Z,12.71
2018-10-18T17:56:11.306Z,12.72
2018-10-18T17:58:40.292Z,12.69
2018-10-18T18:01:10.748Z,12.65
2018-10-18T18:03:41.543Z,12.64
2018-10-18T18:06:11.827Z,12.60
2018-10-18T18:08:47.340Z,12.59
2018-10-18T18:11:18.143Z,12.57
2018-10-18T18:13:55.447Z,12.59
2018-10-18T18:16:34.562Z,12.58
2018-10-18T18:19:18.297Z,12.52
2018-10-18T18:24:50.098Z,12.46
2018-10-18T18:30:52.431Z,12.41
2018-10-18T18:33:24.056Z,12.40
2018-10-18T18:36:02.543Z,12.41
2018-10-18T18:38:31.868Z,12.41
2018-10-18T18:41:00.938Z,12.37
2018-10-18T18:43:29.875Z,12.32
2018-10-18T18:46:15.305Z,12.34
2018-10-18T18:48:44.571Z,12.28
2018-10-18T18:51:13.758Z,12.25
2018-10-18T18:53:42.645Z,12.21
2018-10-18T18:56:12.619Z,12.16
2018-10-18T18:58:41.753Z,12.12
2018-10-18T19:01:10.794Z,12.09
2018-10-18T19:03:39.812Z,12.01
2018-10-18T19:06:09.116Z,11.88
2018-10-18T19:08:38.091Z,11.75
2018-10-18T19:11:07.077Z,11.56
2018-10-18T19:13:36.271Z,11.41
2018-10-18T19:16:06.456Z,11.27
2018-10-18T19:18:35.516Z,11.14
2018-10-18T19:21:04.377Z,11.00
2018-10-18T19:23:33.394Z,10.87
2018-10-18T19:26:04.507Z,10.75
2018-10-18T19:28:33.949Z,10.66
2018-10-18T19:31:02.907Z,10.61
2018-10-18T19:33:31.999Z,10.55
2018-10-18T19:36:00.940Z,10.53
2018-10-18T19:38:29.941Z,10.57
2018-10-18T19:40:58.859Z,10.64
2018-10-18T19:43:28.222Z,10.67
2018-10-18T19:45:57.371Z,10.69
2018-10-18T19:48:26.270Z,10.64
2018-10-18T19:50:55.391Z,10.55
2018-10-18T19:53:24.367Z,10.40
2018-10-18T19:55:53.226Z,10.24
2018-10-18T19:58:22.367Z,10.03
2018-10-18T20:00:50.955Z,9.80
2018-10-18T20:03:19.851Z,9.58
2018-10-18T20:05:49.973Z,9.37
2018-10-18T20:08:18.960Z,9.17
2018-10-18T20:10:47.742Z,9.09
2018-10-18T20:13:16.551Z,8.99
2018-10-18T20:15:45.292Z,8.86
2018-10-18T20:18:14.304Z,8.74
2018-10-18T20:20:42.985Z,8.63
2018-10-18T20:23:11.831Z,8.57
2018-10-18T20:25:41.292Z,8.54
2018-10-18T20:28:10.116Z,8.49
2018-10-18T20:30:39.072Z,8.45
2018-10-18T20:33:08.015Z,8.44
2018-10-18T20:35:37.190Z,8.44
2018-10-18T20:38:06.134Z,8.43
2018-10-18T20:40:34.944Z,8.40
2018-10-18T20:43:03.685Z,8.38
2018-10-18T20:45:33.382Z,8.32
2018-10-18T20:48:02.337Z,8.25
2018-10-18T20:50:30.891Z,8.20
2018-10-18T20:52:59.811Z,8.15
2018-10-18T20:55:28.556Z,8.11
2018-10-18T20:57:57.379Z,8.08
2018-10-18T21:00:25.994Z,8.03
2018-10-18T21:02:54.856Z,7.96
2018-10-18T21:05:23.673Z,7.95
2018-10-18T21:07:52.344Z,7.91
2018-10-18T21:10:21.022Z,7.88
2018-10-18T21:12:49.729Z,7.89
2018-10-18T21:15:18.485Z,7.87
2018-10-18T21:17:47.119Z,7.82
2018-10-18T21:20:15.879Z,7.79
2018-10-18T21:22:44.568Z,7.75
2018-10-18T21:25:13.356Z,7.75
2018-10-18T21:27:42.071Z,7.81
2018-10-18T21:30:10.817Z,7.86
2018-10-18T21:32:39.596Z,7.84
2018-10-18T21:35:08.311Z,7.76
2018-10-18T21:37:37.006Z,7.74
2018-10-18T21:40:05.635Z,7.69
2018-10-18T21:42:34.363Z,7.69
2018-10-18T21:45:03.525Z,7.68
2018-10-18T21:47:32.391Z,7.69
2018-10-18T21:50:01.013Z,7.68
2018-10-18T21:52:29.671Z,7.73
2018-10-18T21:54:58.320Z,7.80
2018-10-18T21:57:28.376Z,7.87
2018-10-18T21:59:57.169Z,7.84
2018-10-18T22:02:25.818Z,7.71
2018-10-18T22:04:54.522Z,7.60
2018-10-18T22:07:23.352Z,7.53
2018-10-18T22:09:52.032Z,7.47
2018-10-18T22:12:20.747Z,7.48
2018-10-18T22:14:49.654Z,7.49
2018-10-18T22:17:18.733Z,7.40
2018-10-18T22:19:47.379Z,7.33
2018-10-18T22:22:16.088Z,7.30
2018-10-18T22:24:44.907Z,7.28
2018-10-18T22:27:13.842Z,7.23
2018-10-18T22:29:42.555Z,7.15
2018-10-18T22:32:11.296Z,7.07
2018-10-18T22:34:40.020Z,6.99
2018-10-18T22:37:08.776Z,6.93
2018-10-18T22:39:37.453Z,6.93
2018-10-18T22:42:06.631Z,6.93
2018-10-18T22:44:35.390Z,6.90
2018-10-18T22:47:05.125Z,6.84
2018-10-18T22:49:33.790Z,6.83
2018-10-18T22:52:02.447Z,6.86
2018-10-18T22:54:31.120Z,6.85
2018-10-18T22:57:00.936Z,6.80
2018-10-18T22:59:29.725Z,6.75
2018-10-18T23:01:58.475Z,6.79
2018-10-18T23:04:27.226Z,6.81
2018-10-18T23:06:55.938Z,6.78
2018-10-18T23:09:24.620Z,6.77
2018-10-18T23:11:53.408Z,6.79
2018-10-18T23:14:22.118Z,6.80
2018-10-18T23:16:50.872Z,6.78
2018-10-18T23:19:19.504Z,6.78
2018-10-18T23:21:48.164Z,6.85
2018-10-18T23:24:16.895Z,6.80
2018-10-18T23:26:46.598Z,6.73
2018-10-18T23:29:15.486Z,6.67
2018-10-18T23:31:44.040Z,6.58
2018-10-18T23:34:12.656Z,6.56
2018-10-18T23:36:41.353Z,6.50
2018-10-18T23:39:11.065Z,6.52
2018-10-18T23:41:39.664Z,6.54
2018-10-18T23:44:08.356Z,6.53
2018-10-18T23:46:37.151Z,6.47
2018-10-18T23:49:05.921Z,6.37
2018-10-18T23:51:34.654Z,6.32
2018-10-18T23:54:03.389Z,6.35
2018-10-18T23:56:31.990Z,6.37
2018-10-18T23:59:00.696Z,6.38
